QBA62B KDCA-KBOS
Flight info
| Callsign | QBA62B |
|---|---|
| Flight time | 1h 11m |
| Altitude | 39000 |
| Route | SOOKI6 SWANN BROSS Q419 JFK ROBUC3 |
| Aircraft | B736/M-SDE2E3FGHIRWXY/LB1 |
Departure
| Time | 2026-05-04 19:52 |
|---|---|
| Airport | Ronald Reagan Washington National Airport (KDCA) |
Arrival
| Time | 2026-05-04 21:03 |
|---|---|
| Airport | Boston Logan International Airport (KBOS) |
| Time | Latitude | Longitude | Altitude | Speed | Heading |
|---|---|---|---|---|---|
| 2026-05-04 19:18 | 38.85371 | -77.04110 | 26 ft | 0 kts | 327° |
| 2026-05-04 19:43 | 38.85363 | -77.04104 | 25 ft | 4 kts | 330° |
| 2026-05-04 19:43 | 38.85339 | -77.04092 | 26 ft | 4 kts | 1° |
| 2026-05-04 19:43 | 38.85319 | -77.04101 | 27 ft | 4 kts | 63° |
| 2026-05-04 19:44 | 38.85316 | -77.04108 | 28 ft | 0 kts | 72° |
| 2026-05-04 19:47 | 38.85319 | -77.04095 | 27 ft | 3 kts | 72° |
| 2026-05-04 19:47 | 38.85330 | -77.04053 | 25 ft | 6 kts | 72° |
| 2026-05-04 19:48 | 38.85339 | -77.03999 | 23 ft | 7 kts | 85° |
| 2026-05-04 19:48 | 38.85356 | -77.03943 | 25 ft | 7 kts | 33° |
| 2026-05-04 19:48 | 38.85405 | -77.03942 | 24 ft | 7 kts | 355° |
| 2026-05-04 19:48 | 38.85463 | -77.03948 | 24 ft | 9 kts | 355° |
| 2026-05-04 19:49 | 38.85536 | -77.03955 | 23 ft | 12 kts | 355° |
| 2026-05-04 19:49 | 38.85626 | -77.03964 | 25 ft | 14 kts | 355° |
| 2026-05-04 19:49 | 38.85692 | -77.03971 | 26 ft | 14 kts | 355° |
| 2026-05-04 19:49 | 38.85790 | -77.03981 | 27 ft | 14 kts | 355° |
| 2026-05-04 19:50 | 38.85884 | -77.03990 | 25 ft | 13 kts | 358° |
| 2026-05-04 19:50 | 38.85980 | -77.03965 | 23 ft | 15 kts | 15° |
| 2026-05-04 19:50 | 38.86076 | -77.03925 | 23 ft | 12 kts | 35° |
| 2026-05-04 19:50 | 38.86061 | -77.03867 | 22 ft | 7 kts | 174° |
| 2026-05-04 19:51 | 38.86009 | -77.03862 | 23 ft | 10 kts | 175° |
| 2026-05-04 19:51 | 38.85739 | -77.03834 | 25 ft | 70 kts | 175° |
| 2026-05-04 19:51 | 38.85075 | -77.03768 | 26 ft | 119 kts | 175° |
| 2026-05-04 19:51 | 38.84140 | -77.03661 | 148 ft | 143 kts | 174° |
| 2026-05-04 19:52 | 38.83149 | -77.03588 | 619 ft | 145 kts | 176° |
| 2026-05-04 19:52 | 38.82146 | -77.03373 | 1014 ft | 152 kts | 171° |
| 2026-05-04 19:52 | 38.81025 | -77.03105 | 1172 ft | 174 kts | 175° |
| 2026-05-04 19:52 | 38.79786 | -77.02835 | 1438 ft | 188 kts | 174° |
| 2026-05-04 19:53 | 38.78439 | -77.02541 | 1610 ft | 207 kts | 175° |
| 2026-05-04 19:53 | 38.76950 | -77.02155 | 2079 ft | 228 kts | 165° |
| 2026-05-04 19:53 | 38.75647 | -77.00915 | 2837 ft | 246 kts | 129° |
| 2026-05-04 19:53 | 38.75066 | -76.98759 | 3358 ft | 271 kts | 95° |
| 2026-05-04 19:54 | 38.75071 | -76.96309 | 4103 ft | 280 kts | 91° |
| 2026-05-04 19:54 | 38.75163 | -76.93797 | 4940 ft | 285 kts | 81° |
| 2026-05-04 19:54 | 38.75974 | -76.91487 | 5808 ft | 289 kts | 51° |
| 2026-05-04 19:54 | 38.77488 | -76.89795 | 6663 ft | 290 kts | 30° |
| 2026-05-04 19:55 | 38.79221 | -76.88468 | 7607 ft | 291 kts | 28° |
| 2026-05-04 19:55 | 38.80977 | -76.87156 | 8545 ft | 294 kts | 28° |
| 2026-05-04 19:55 | 38.82747 | -76.85809 | 9601 ft | 296 kts | 27° |
| 2026-05-04 19:55 | 38.84520 | -76.84442 | 10511 ft | 303 kts | 27° |
| 2026-05-04 19:56 | 38.86401 | -76.82978 | 10827 ft | 331 kts | 29° |
| 2026-05-04 19:56 | 38.88263 | -76.81106 | 11449 ft | 346 kts | 38° |
| 2026-05-04 19:56 | 38.90055 | -76.78985 | 12290 ft | 353 kts | 40° |
| 2026-05-04 19:56 | 38.91855 | -76.76802 | 13197 ft | 359 kts | 39° |
| 2026-05-04 19:57 | 38.93695 | -76.74594 | 14078 ft | 365 kts | 39° |
| 2026-05-04 19:57 | 38.95573 | -76.72376 | 14944 ft | 368 kts | 38° |
| 2026-05-04 19:57 | 38.97471 | -76.70163 | 15887 ft | 370 kts | 38° |
| 2026-05-04 19:57 | 38.99388 | -76.67939 | 16805 ft | 373 kts | 38° |
| 2026-05-04 19:58 | 39.01320 | -76.65695 | 17686 ft | 377 kts | 39° |
| 2026-05-04 19:58 | 39.03221 | -76.63335 | 18534 ft | 382 kts | 41° |
| 2026-05-04 19:58 | 39.05079 | -76.60923 | 19313 ft | 386 kts | 41° |
| 2026-05-04 19:58 | 39.06983 | -76.58453 | 20075 ft | 390 kts | 41° |
| 2026-05-04 19:59 | 39.08907 | -76.55979 | 20863 ft | 393 kts | 40° |
| 2026-05-04 19:59 | 39.10801 | -76.53410 | 21630 ft | 401 kts | 49° |
| 2026-05-04 19:59 | 39.12086 | -76.50171 | 22373 ft | 415 kts | 70° |
| 2026-05-04 19:59 | 39.12622 | -76.46494 | 23209 ft | 420 kts | 79° |
| 2026-05-04 20:00 | 39.13007 | -76.42744 | 23881 ft | 425 kts | 79° |
| 2026-05-04 20:00 | 39.13377 | -76.38948 | 24517 ft | 430 kts | 79° |
| 2026-05-04 20:00 | 39.13766 | -76.35111 | 25162 ft | 433 kts | 79° |
| 2026-05-04 20:00 | 39.14177 | -76.31259 | 25794 ft | 436 kts | 79° |
| 2026-05-04 20:01 | 39.14603 | -76.27382 | 26433 ft | 439 kts | 79° |
| 2026-05-04 20:01 | 39.15036 | -76.23477 | 27055 ft | 442 kts | 78° |
| 2026-05-04 20:01 | 39.15480 | -76.19544 | 27654 ft | 445 kts | 78° |
| 2026-05-04 20:01 | 39.15941 | -76.15580 | 28241 ft | 449 kts | 78° |
| 2026-05-04 20:02 | 39.16401 | -76.11643 | 28816 ft | 452 kts | 78° |
| 2026-05-04 20:02 | 39.16870 | -76.07615 | 29371 ft | 456 kts | 78° |
| 2026-05-04 20:02 | 39.17337 | -76.03567 | 29916 ft | 459 kts | 78° |
| 2026-05-04 20:02 | 39.17806 | -75.99480 | 30384 ft | 462 kts | 78° |
| 2026-05-04 20:03 | 39.18276 | -75.95364 | 30836 ft | 465 kts | 78° |
| 2026-05-04 20:03 | 39.18977 | -75.91309 | 31228 ft | 462 kts | 66° |
| 2026-05-04 20:03 | 39.20371 | -75.87619 | 31632 ft | 456 kts | 53° |
| 2026-05-04 20:03 | 39.22308 | -75.84431 | 32163 ft | 447 kts | 40° |
| 2026-05-04 20:04 | 39.24625 | -75.81820 | 32780 ft | 440 kts | 35° |
| 2026-05-04 20:04 | 39.26979 | -75.79320 | 33348 ft | 437 kts | 34° |
| 2026-05-04 20:04 | 39.29328 | -75.76825 | 33848 ft | 437 kts | 35° |
| 2026-05-04 20:04 | 39.31656 | -75.74321 | 34293 ft | 436 kts | 35° |
| 2026-05-04 20:05 | 39.33983 | -75.71791 | 34568 ft | 439 kts | 36° |
| 2026-05-04 20:05 | 39.36319 | -75.69230 | 34784 ft | 443 kts | 36° |
| 2026-05-04 20:05 | 39.38663 | -75.66647 | 35251 ft | 440 kts | 36° |
| 2026-05-04 20:05 | 39.40988 | -75.64082 | 35598 ft | 441 kts | 36° |
| 2026-05-04 20:06 | 39.43335 | -75.61497 | 35777 ft | 445 kts | 36° |
| 2026-05-04 20:06 | 39.45703 | -75.58891 | 35998 ft | 448 kts | 36° |
| 2026-05-04 20:06 | 39.48085 | -75.56275 | 36273 ft | 449 kts | 36° |
| 2026-05-04 20:06 | 39.50471 | -75.53653 | 36572 ft | 450 kts | 36° |
| 2026-05-04 20:07 | 39.52863 | -75.51022 | 36844 ft | 452 kts | 36° |
| 2026-05-04 20:07 | 39.55266 | -75.48372 | 36950 ft | 457 kts | 37° |
| 2026-05-04 20:07 | 39.57537 | -75.45452 | 36957 ft | 462 kts | 44° |
| 2026-05-04 20:08 | 39.61676 | -75.39139 | 36941 ft | 457 kts | 46° |
| 2026-05-04 20:08 | 39.65725 | -75.32788 | 36958 ft | 457 kts | 46° |
| 2026-05-04 20:09 | 39.69810 | -75.26468 | 36941 ft | 457 kts | 46° |
| 2026-05-04 20:09 | 39.73932 | -75.20151 | 36932 ft | 458 kts | 45° |
| 2026-05-04 20:10 | 39.78058 | -75.13837 | 36927 ft | 459 kts | 45° |
| 2026-05-04 20:10 | 39.82186 | -75.07508 | 36931 ft | 459 kts | 45° |
| 2026-05-04 20:11 | 39.86290 | -75.01199 | 36924 ft | 460 kts | 45° |
| 2026-05-04 20:11 | 39.90419 | -74.94838 | 36930 ft | 460 kts | 45° |
| 2026-05-04 20:12 | 39.94553 | -74.88455 | 36933 ft | 461 kts | 46° |
| 2026-05-04 20:12 | 39.98686 | -74.82060 | 36923 ft | 461 kts | 46° |
| 2026-05-04 20:13 | 40.02811 | -74.75664 | 36923 ft | 460 kts | 46° |
| 2026-05-04 20:13 | 40.06915 | -74.69288 | 36933 ft | 458 kts | 46° |
| 2026-05-04 20:14 | 40.11012 | -74.62909 | 36934 ft | 457 kts | 46° |
| 2026-05-04 20:14 | 40.15086 | -74.56554 | 36919 ft | 456 kts | 46° |
| 2026-05-04 20:15 | 40.19153 | -74.50198 | 36918 ft | 455 kts | 46° |
| 2026-05-04 20:15 | 40.23200 | -74.43859 | 36929 ft | 454 kts | 46° |
| 2026-05-04 20:16 | 40.27239 | -74.37520 | 36928 ft | 453 kts | 46° |
| 2026-05-04 20:16 | 40.31270 | -74.31182 | 36930 ft | 453 kts | 46° |
| 2026-05-04 20:17 | 40.35275 | -74.24870 | 36926 ft | 453 kts | 46° |
| 2026-05-04 20:17 | 40.39307 | -74.18503 | 36927 ft | 454 kts | 46° |
| 2026-05-04 20:18 | 40.43339 | -74.12123 | 36910 ft | 454 kts | 46° |
| 2026-05-04 20:18 | 40.47371 | -74.05728 | 36940 ft | 455 kts | 45° |
| 2026-05-04 20:19 | 40.51400 | -73.99327 | 36920 ft | 455 kts | 46° |
| 2026-05-04 20:19 | 40.53434 | -73.96091 | 36406 ft | 460 kts | 46° |
| 2026-05-04 20:19 | 40.55462 | -73.92860 | 35822 ft | 457 kts | 45° |
| 2026-05-04 20:19 | 40.57483 | -73.89634 | 35108 ft | 456 kts | 45° |
| 2026-05-04 20:20 | 40.59504 | -73.86406 | 34379 ft | 455 kts | 45° |
| 2026-05-04 20:20 | 40.61512 | -73.83196 | 33666 ft | 453 kts | 45° |
| 2026-05-04 20:20 | 40.63491 | -73.80024 | 33068 ft | 443 kts | 44° |
| 2026-05-04 20:20 | 40.65434 | -73.76906 | 32529 ft | 437 kts | 44° |
| 2026-05-04 20:21 | 40.67350 | -73.73833 | 31989 ft | 431 kts | 44° |
| 2026-05-04 20:21 | 40.69241 | -73.70798 | 31458 ft | 426 kts | 44° |
| 2026-05-04 20:21 | 40.72965 | -73.64818 | 30444 ft | 418 kts | 44° |
| 2026-05-04 20:22 | 40.74803 | -73.61861 | 29944 ft | 414 kts | 44° |
| 2026-05-04 20:22 | 40.76617 | -73.58940 | 29389 ft | 410 kts | 44° |
| 2026-05-04 20:22 | 40.78411 | -73.56047 | 28874 ft | 405 kts | 44° |
| 2026-05-04 20:22 | 40.80187 | -73.53180 | 28400 ft | 400 kts | 44° |
| 2026-05-04 20:23 | 40.81919 | -73.50386 | 27883 ft | 397 kts | 44° |
| 2026-05-04 20:23 | 40.83656 | -73.47578 | 27392 ft | 393 kts | 44° |
| 2026-05-04 20:23 | 40.85380 | -73.44788 | 26905 ft | 390 kts | 44° |
| 2026-05-04 20:23 | 40.87105 | -73.42088 | 26708 ft | 380 kts | 42° |
| 2026-05-04 20:24 | 40.88863 | -73.39484 | 26525 ft | 385 kts | 41° |
| 2026-05-04 20:24 | 40.90728 | -73.36782 | 26328 ft | 399 kts | 41° |
| 2026-05-04 20:24 | 40.92578 | -73.34096 | 26124 ft | 400 kts | 42° |
| 2026-05-04 20:24 | 40.94432 | -73.31380 | 25896 ft | 396 kts | 42° |
| 2026-05-04 20:25 | 40.96263 | -73.28679 | 25687 ft | 392 kts | 42° |
| 2026-05-04 20:25 | 40.98070 | -73.26003 | 25503 ft | 388 kts | 42° |
| 2026-05-04 20:25 | 40.99864 | -73.23343 | 25287 ft | 387 kts | 42° |
| 2026-05-04 20:25 | 41.01651 | -73.20690 | 25100 ft | 386 kts | 42° |
| 2026-05-04 20:26 | 41.03436 | -73.18038 | 24898 ft | 386 kts | 42° |
| 2026-05-04 20:26 | 41.05220 | -73.15387 | 24699 ft | 386 kts | 43° |
| 2026-05-04 20:26 | 41.07005 | -73.12730 | 24498 ft | 386 kts | 43° |
| 2026-05-04 20:26 | 41.08792 | -73.10068 | 24307 ft | 387 kts | 43° |
| 2026-05-04 20:27 | 41.10583 | -73.07397 | 24107 ft | 387 kts | 43° |
| 2026-05-04 20:27 | 41.12374 | -73.04722 | 23908 ft | 387 kts | 43° |
| 2026-05-04 20:27 | 41.14158 | -73.02056 | 23719 ft | 387 kts | 43° |
| 2026-05-04 20:27 | 41.15942 | -72.99388 | 23517 ft | 386 kts | 43° |
| 2026-05-04 20:28 | 41.17716 | -72.96731 | 23276 ft | 384 kts | 43° |
| 2026-05-04 20:28 | 41.19486 | -72.94081 | 23063 ft | 382 kts | 43° |
| 2026-05-04 20:28 | 41.21212 | -72.91407 | 22857 ft | 383 kts | 49° |
| 2026-05-04 20:28 | 41.22569 | -72.88356 | 22787 ft | 382 kts | 58° |
| 2026-05-04 20:29 | 41.23759 | -72.85211 | 22695 ft | 381 kts | 59° |
| 2026-05-04 20:29 | 41.24900 | -72.82089 | 22610 ft | 380 kts | 59° |
| 2026-05-04 20:29 | 41.26060 | -72.78924 | 22518 ft | 381 kts | 59° |
| 2026-05-04 20:29 | 41.27231 | -72.75764 | 22440 ft | 382 kts | 59° |
| 2026-05-04 20:30 | 41.28421 | -72.72589 | 22352 ft | 384 kts | 59° |
| 2026-05-04 20:30 | 41.29622 | -72.69411 | 22277 ft | 385 kts | 58° |
| 2026-05-04 20:30 | 41.30832 | -72.66222 | 22182 ft | 386 kts | 58° |
| 2026-05-04 20:30 | 41.32046 | -72.63026 | 22085 ft | 387 kts | 58° |
| 2026-05-04 20:31 | 41.33260 | -72.59833 | 21991 ft | 387 kts | 58° |
| 2026-05-04 20:31 | 41.34471 | -72.56643 | 21904 ft | 386 kts | 58° |
| 2026-05-04 20:31 | 41.35677 | -72.53461 | 21805 ft | 385 kts | 59° |
| 2026-05-04 20:31 | 41.36878 | -72.50292 | 21715 ft | 383 kts | 58° |
| 2026-05-04 20:32 | 41.38076 | -72.47125 | 21628 ft | 382 kts | 59° |
| 2026-05-04 20:32 | 41.39269 | -72.43970 | 21543 ft | 381 kts | 59° |
| 2026-05-04 20:32 | 41.40458 | -72.40821 | 21452 ft | 380 kts | 59° |
| 2026-05-04 20:32 | 41.41643 | -72.37679 | 21365 ft | 380 kts | 59° |
| 2026-05-04 20:33 | 41.42827 | -72.34537 | 21272 ft | 379 kts | 59° |
| 2026-05-04 20:33 | 41.44009 | -72.31398 | 21189 ft | 378 kts | 59° |
| 2026-05-04 20:33 | 41.45186 | -72.28268 | 21102 ft | 378 kts | 59° |
| 2026-05-04 20:33 | 41.46365 | -72.25132 | 21023 ft | 378 kts | 59° |
| 2026-05-04 20:34 | 41.47542 | -72.21996 | 20932 ft | 378 kts | 59° |
| 2026-05-04 20:34 | 41.48716 | -72.18843 | 20716 ft | 382 kts | 59° |
| 2026-05-04 20:34 | 41.49887 | -72.15652 | 20429 ft | 382 kts | 60° |
| 2026-05-04 20:34 | 41.51043 | -72.12482 | 20160 ft | 378 kts | 60° |
| 2026-05-04 20:35 | 41.52182 | -72.09353 | 19903 ft | 373 kts | 60° |
| 2026-05-04 20:35 | 41.53314 | -72.06251 | 19649 ft | 371 kts | 60° |
| 2026-05-04 20:35 | 41.54443 | -72.03157 | 19398 ft | 369 kts | 60° |
| 2026-05-04 20:35 | 41.55552 | -72.00116 | 19152 ft | 369 kts | 60° |
| 2026-05-04 20:36 | 41.56579 | -71.96976 | 18899 ft | 370 kts | 64° |
| 2026-05-04 20:36 | 41.57512 | -71.93780 | 18653 ft | 370 kts | 65° |
| 2026-05-04 20:36 | 41.58444 | -71.90574 | 18407 ft | 369 kts | 65° |
| 2026-05-04 20:36 | 41.59386 | -71.87381 | 18146 ft | 369 kts | 65° |
| 2026-05-04 20:37 | 41.60332 | -71.84191 | 17852 ft | 369 kts | 65° |
| 2026-05-04 20:37 | 41.61274 | -71.81005 | 17582 ft | 368 kts | 65° |
| 2026-05-04 20:37 | 41.62211 | -71.77829 | 17316 ft | 367 kts | 65° |
| 2026-05-04 20:37 | 41.63144 | -71.74667 | 17067 ft | 365 kts | 65° |
| 2026-05-04 20:38 | 41.64065 | -71.71538 | 16950 ft | 359 kts | 65° |
| 2026-05-04 20:38 | 41.64669 | -71.69488 | 16800 ft | 359 kts | 65° |
| 2026-05-04 20:38 | 41.65582 | -71.66384 | 16559 ft | 358 kts | 65° |
| 2026-05-04 20:38 | 41.66492 | -71.63289 | 16312 ft | 358 kts | 65° |
| 2026-05-04 20:39 | 41.67404 | -71.60184 | 16062 ft | 358 kts | 65° |
| 2026-05-04 20:39 | 41.68303 | -71.57113 | 15814 ft | 351 kts | 66° |
| 2026-05-04 20:39 | 41.69184 | -71.54099 | 15570 ft | 344 kts | 65° |
| 2026-05-04 20:39 | 41.70051 | -71.51132 | 15329 ft | 342 kts | 65° |
| 2026-05-04 20:40 | 41.70917 | -71.48171 | 15109 ft | 341 kts | 65° |
| 2026-05-04 20:40 | 41.71781 | -71.45210 | 14881 ft | 343 kts | 65° |
| 2026-05-04 20:40 | 41.72683 | -71.42252 | 14645 ft | 344 kts | 61° |
| 2026-05-04 20:40 | 41.73831 | -71.39447 | 14410 ft | 342 kts | 56° |
| 2026-05-04 20:41 | 41.75063 | -71.36729 | 14181 ft | 342 kts | 56° |
| 2026-05-04 20:41 | 41.76284 | -71.33993 | 13939 ft | 342 kts | 56° |
| 2026-05-04 20:41 | 41.77476 | -71.31247 | 13701 ft | 341 kts | 57° |
| 2026-05-04 20:41 | 41.78659 | -71.28487 | 13440 ft | 341 kts | 57° |
| 2026-05-04 20:42 | 41.79832 | -71.25732 | 13180 ft | 339 kts | 57° |
| 2026-05-04 20:42 | 41.81000 | -71.22984 | 12936 ft | 337 kts | 57° |
| 2026-05-04 20:42 | 41.82151 | -71.20278 | 12705 ft | 332 kts | 57° |
| 2026-05-04 20:42 | 41.83291 | -71.17595 | 12471 ft | 329 kts | 57° |
| 2026-05-04 20:43 | 41.84420 | -71.14937 | 12252 ft | 327 kts | 57° |
| 2026-05-04 20:43 | 41.85532 | -71.12316 | 12053 ft | 319 kts | 57° |
| 2026-05-04 20:43 | 41.86622 | -71.09775 | 11848 ft | 311 kts | 56° |
| 2026-05-04 20:43 | 41.87701 | -71.07281 | 11663 ft | 308 kts | 56° |
| 2026-05-04 20:44 | 41.88780 | -71.04791 | 11480 ft | 308 kts | 56° |
| 2026-05-04 20:44 | 41.89858 | -71.02302 | 11294 ft | 309 kts | 56° |
| 2026-05-04 20:44 | 41.90937 | -70.99806 | 11110 ft | 310 kts | 56° |
| 2026-05-04 20:44 | 41.92006 | -70.97329 | 10923 ft | 311 kts | 56° |
| 2026-05-04 20:45 | 41.93105 | -70.94779 | 10732 ft | 311 kts | 56° |
| 2026-05-04 20:45 | 41.94189 | -70.92260 | 10544 ft | 312 kts | 56° |
| 2026-05-04 20:45 | 41.95273 | -70.89739 | 10356 ft | 312 kts | 55° |
| 2026-05-04 20:45 | 41.96344 | -70.87246 | 10155 ft | 312 kts | 56° |
| 2026-05-04 20:46 | 41.97431 | -70.84713 | 9963 ft | 313 kts | 56° |
| 2026-05-04 20:46 | 41.98515 | -70.82185 | 9774 ft | 311 kts | 56° |
| 2026-05-04 20:46 | 41.99590 | -70.79675 | 9569 ft | 308 kts | 56° |
| 2026-05-04 20:46 | 42.00648 | -70.77201 | 9380 ft | 303 kts | 55° |
| 2026-05-04 20:47 | 42.01824 | -70.74889 | 9158 ft | 298 kts | 44° |
| 2026-05-04 20:47 | 42.03208 | -70.72839 | 8987 ft | 295 kts | 41° |
| 2026-05-04 20:47 | 42.04620 | -70.70835 | 8803 ft | 295 kts | 41° |
| 2026-05-04 20:47 | 42.06018 | -70.68813 | 8620 ft | 295 kts | 42° |
| 2026-05-04 20:48 | 42.07407 | -70.66762 | 8447 ft | 295 kts | 43° |
| 2026-05-04 20:48 | 42.08779 | -70.64713 | 8271 ft | 296 kts | 43° |
| 2026-05-04 20:48 | 42.10169 | -70.62680 | 8089 ft | 294 kts | 37° |
| 2026-05-04 20:48 | 42.11883 | -70.61320 | 7844 ft | 283 kts | 12° |
| 2026-05-04 20:49 | 42.13791 | -70.60700 | 7604 ft | 282 kts | 5° |
| 2026-05-04 20:49 | 42.15719 | -70.60184 | 7335 ft | 282 kts | 5° |
| 2026-05-04 20:49 | 42.17640 | -70.59676 | 7073 ft | 281 kts | 5° |
| 2026-05-04 20:49 | 42.19556 | -70.59163 | 6812 ft | 280 kts | 5° |
| 2026-05-04 20:50 | 42.21471 | -70.58642 | 6530 ft | 280 kts | 6° |
| 2026-05-04 20:50 | 42.23382 | -70.58115 | 6283 ft | 280 kts | 6° |
| 2026-05-04 20:50 | 42.25298 | -70.57583 | 5993 ft | 280 kts | 6° |
| 2026-05-04 20:50 | 42.27208 | -70.57051 | 5725 ft | 280 kts | 6° |
| 2026-05-04 20:51 | 42.29119 | -70.56517 | 5455 ft | 281 kts | 6° |
| 2026-05-04 20:51 | 42.31034 | -70.56034 | 5190 ft | 277 kts | 359° |
| 2026-05-04 20:51 | 42.32873 | -70.56465 | 5050 ft | 267 kts | 330° |
| 2026-05-04 20:51 | 42.34409 | -70.57813 | 5023 ft | 261 kts | 313° |
| 2026-05-04 20:52 | 42.35713 | -70.59490 | 5029 ft | 257 kts | 310° |
| 2026-05-04 20:52 | 42.36976 | -70.61181 | 5012 ft | 254 kts | 310° |
| 2026-05-04 20:52 | 42.38209 | -70.62837 | 4996 ft | 252 kts | 310° |
| 2026-05-04 20:52 | 42.39452 | -70.64499 | 4829 ft | 248 kts | 310° |
| 2026-05-04 20:53 | 42.40665 | -70.66110 | 4462 ft | 241 kts | 310° |
| 2026-05-04 20:53 | 42.41842 | -70.67668 | 4160 ft | 232 kts | 310° |
| 2026-05-04 20:53 | 42.42969 | -70.69157 | 3892 ft | 222 kts | 310° |
| 2026-05-04 20:53 | 42.44053 | -70.70588 | 3628 ft | 213 kts | 309° |
| 2026-05-04 20:54 | 42.45117 | -70.71998 | 3390 ft | 217 kts | 309° |
| 2026-05-04 20:54 | 42.46215 | -70.73453 | 3154 ft | 223 kts | 310° |
| 2026-05-04 20:54 | 42.47316 | -70.74907 | 3032 ft | 219 kts | 310° |
| 2026-05-04 20:54 | 42.48401 | -70.76341 | 3003 ft | 221 kts | 310° |
| 2026-05-04 20:55 | 42.49510 | -70.77806 | 2999 ft | 221 kts | 310° |
| 2026-05-04 20:55 | 42.50606 | -70.79253 | 2987 ft | 218 kts | 310° |
| 2026-05-04 20:55 | 42.51682 | -70.80643 | 2979 ft | 216 kts | 315° |
| 2026-05-04 20:55 | 42.53085 | -70.81438 | 2989 ft | 228 kts | 348° |
| 2026-05-04 20:56 | 42.54699 | -70.81170 | 3000 ft | 242 kts | 12° |
| 2026-05-04 20:56 | 42.56295 | -70.80404 | 2998 ft | 242 kts | 15° |
| 2026-05-04 20:56 | 42.57866 | -70.79606 | 2982 ft | 238 kts | 11° |
| 2026-05-04 20:56 | 42.59413 | -70.79627 | 2996 ft | 216 kts | 329° |
| 2026-05-04 20:57 | 42.60544 | -70.80827 | 3005 ft | 203 kts | 302° |
| 2026-05-04 20:57 | 42.61191 | -70.82487 | 2990 ft | 198 kts | 281° |
| 2026-05-04 20:57 | 42.61270 | -70.84319 | 2992 ft | 195 kts | 258° |
| 2026-05-04 20:57 | 42.60774 | -70.86025 | 3004 ft | 197 kts | 238° |
| 2026-05-04 20:58 | 42.59806 | -70.87370 | 2984 ft | 204 kts | 217° |
| 2026-05-04 20:58 | 42.58566 | -70.88325 | 2991 ft | 206 kts | 213° |
| 2026-05-04 20:58 | 42.57305 | -70.89275 | 2989 ft | 207 kts | 213° |
| 2026-05-04 20:58 | 42.56054 | -70.90215 | 2970 ft | 202 kts | 213° |
| 2026-05-04 20:59 | 42.54853 | -70.91113 | 2997 ft | 194 kts | 213° |
| 2026-05-04 20:59 | 42.53675 | -70.91997 | 3000 ft | 193 kts | 212° |
| 2026-05-04 20:59 | 42.52475 | -70.92750 | 2987 ft | 193 kts | 207° |
| 2026-05-04 20:59 | 42.51204 | -70.93392 | 2844 ft | 198 kts | 205° |
| 2026-05-04 21:00 | 42.49901 | -70.94021 | 2587 ft | 197 kts | 205° |
| 2026-05-04 21:00 | 42.48628 | -70.94633 | 2334 ft | 191 kts | 205° |
| 2026-05-04 21:00 | 42.47380 | -70.95236 | 2085 ft | 184 kts | 205° |
| 2026-05-04 21:00 | 42.46221 | -70.95796 | 1844 ft | 175 kts | 205° |
| 2026-05-04 21:01 | 42.45127 | -70.96325 | 1639 ft | 159 kts | 206° |
| 2026-05-04 21:01 | 42.44137 | -70.96805 | 1426 ft | 144 kts | 206° |
| 2026-05-04 21:01 | 42.43251 | -70.97235 | 1237 ft | 130 kts | 206° |
| 2026-05-04 21:01 | 42.42421 | -70.97636 | 1076 ft | 122 kts | 210° |
| 2026-05-04 21:02 | 42.41603 | -70.98037 | 905 ft | 128 kts | 206° |
| 2026-05-04 21:02 | 42.40776 | -70.98437 | 740 ft | 125 kts | 207° |
| 2026-05-04 21:02 | 42.39973 | -70.98824 | 589 ft | 121 kts | 205° |
| 2026-05-04 21:02 | 42.39186 | -70.99203 | 433 ft | 120 kts | 206° |
| 2026-05-04 21:03 | 42.38394 | -70.99591 | 251 ft | 122 kts | 204° |
| 2026-05-04 21:03 | 42.37600 | -70.99974 | 106 ft | 119 kts | 205° |
| 2026-05-04 21:03 | 42.36862 | -71.00343 | 25 ft | 99 kts | 201° |
| 2026-05-04 21:03 | 42.36411 | -71.00559 | 29 ft | 45 kts | 201° |
| 2026-05-04 21:04 | 42.36176 | -71.00684 | 25 ft | 25 kts | 221° |
| 2026-05-04 21:04 | 42.36167 | -71.00864 | 28 ft | 18 kts | 294° |
| 2026-05-04 21:04 | 42.36208 | -71.00991 | 25 ft | 12 kts | 292° |
| 2026-05-04 21:04 | 42.36236 | -71.01081 | 27 ft | 10 kts | 292° |
| 2026-05-04 21:05 | 42.36270 | -71.01176 | 26 ft | 12 kts | 297° |
| 2026-05-04 21:05 | 42.36313 | -71.01268 | 24 ft | 11 kts | 302° |
| 2026-05-04 21:05 | 42.36297 | -71.01353 | 25 ft | 11 kts | 202° |
| 2026-05-04 21:05 | 42.36224 | -71.01388 | 27 ft | 11 kts | 200° |
| 2026-05-04 21:06 | 42.36154 | -71.01424 | 26 ft | 11 kts | 200° |
| 2026-05-04 21:06 | 42.36077 | -71.01460 | 27 ft | 14 kts | 200° |
| 2026-05-04 21:06 | 42.35980 | -71.01507 | 26 ft | 15 kts | 200° |
| 2026-05-04 21:06 | 42.35891 | -71.01566 | 24 ft | 14 kts | 239° |
| 2026-05-04 21:07 | 42.35902 | -71.01691 | 24 ft | 13 kts | 281° |
| 2026-05-04 21:07 | 42.35920 | -71.01815 | 28 ft | 13 kts | 292° |
| 2026-05-04 21:07 | 42.35965 | -71.01927 | 26 ft | 14 kts | 300° |
| 2026-05-04 21:07 | 42.36017 | -71.02044 | 27 ft | 14 kts | 300° |
| 2026-05-04 21:08 | 42.36067 | -71.02158 | 26 ft | 14 kts | 301° |
| 2026-05-04 21:08 | 42.36120 | -71.02262 | 25 ft | 13 kts | 324° |
| 2026-05-04 21:08 | 42.36207 | -71.02266 | 26 ft | 12 kts | 19° |
| 2026-05-04 21:08 | 42.36265 | -71.02234 | 26 ft | 9 kts | 22° |
| 2026-05-04 21:09 | 42.36318 | -71.02255 | 27 ft | 8 kts | 315° |
| 2026-05-04 21:09 | 42.36354 | -71.02323 | 25 ft | 9 kts | 320° |
| 2026-05-04 21:09 | 42.36391 | -71.02335 | 25 ft | 3 kts | 35° |
| 2026-05-04 21:09 | 42.36405 | -71.02303 | 25 ft | 5 kts | 64° |
| 2026-05-04 21:10 | 42.36412 | -71.02282 | 26 ft | 0 kts | 64° |
| 2026-05-04 21:10 | 42.36412 | -71.02283 | 26 ft | 0 kts | 64° |